sensor_id;sensor_type;location;lat;lon;timestamp;P1;durP1;ratioP1;P2;durP2;ratioP2
47365;SDS011;33105;47.964;7.982;2022-07-09T00:01:02;6.65;;;1.80;;
47365;SDS011;33105;47.964;7.982;2022-07-09T00:04:03;6.07;;;2.10;;
47365;SDS011;33105;47.964;7.982;2022-07-09T00:07:04;5.07;;;1.75;;
47365;SDS011;33105;47.964;7.982;2022-07-09T00:10:06;6.80;;;2.22;;
47365;SDS011;33105;47.964;7.982;2022-07-09T00:13:08;6.30;;;2.17;;
47365;SDS011;33105;47.964;7.982;2022-07-09T00:16:10;4.32;;;2.13;;
47365;SDS011;33105;47.964;7.982;2022-07-09T00:19:11;4.35;;;1.90;;
47365;SDS011;33105;47.964;7.982;2022-07-09T00:22:13;7.88;;;2.05;;
47365;SDS011;33105;47.964;7.982;2022-07-09T00:25:14;5.68;;;2.60;;
47365;SDS011;33105;47.964;7.982;2022-07-09T00:28:16;8.02;;;2.22;;
47365;SDS011;33105;47.964;7.982;2022-07-09T00:31:17;4.80;;;1.85;;
47365;SDS011;33105;47.964;7.982;2022-07-09T00:34:18;5.60;;;1.90;;
47365;SDS011;33105;47.964;7.982;2022-07-09T00:37:19;9.40;;;1.90;;
47365;SDS011;33105;47.964;7.982;2022-07-09T00:40:20;5.20;;;2.00;;
47365;SDS011;33105;47.964;7.982;2022-07-09T00:43:22;4.50;;;1.85;;
47365;SDS011;33105;47.964;7.982;2022-07-09T00:46:24;11.43;;;1.90;;
47365;SDS011;33105;47.964;7.982;2022-07-09T00:49:27;3.50;;;1.40;;
47365;SDS011;33105;47.964;7.982;2022-07-09T00:52:30;2.95;;;1.35;;
47365;SDS011;33105;47.964;7.982;2022-07-09T00:55:32;10.60;;;1.77;;
47365;SDS011;33105;47.964;7.982;2022-07-09T00:58:34;6.05;;;1.88;;
47365;SDS011;33105;47.964;7.982;2022-07-09T01:01:36;12.48;;;2.28;;
47365;SDS011;33105;47.964;7.982;2022-07-09T01:04:38;5.15;;;1.95;;
47365;SDS011;33105;47.964;7.982;2022-07-09T01:07:40;7.90;;;1.90;;
47365;SDS011;33105;47.964;7.982;2022-07-09T01:10:42;7.07;;;1.98;;
47365;SDS011;33105;47.964;7.982;2022-07-09T01:13:45;3.22;;;1.45;;
47365;SDS011;33105;47.964;7.982;2022-07-09T01:16:46;8.90;;;1.73;;
47365;SDS011;33105;47.964;7.982;2022-07-09T01:19:48;6.43;;;1.95;;
47365;SDS011;33105;47.964;7.982;2022-07-09T01:22:49;5.65;;;1.73;;
47365;SDS011;33105;47.964;7.982;2022-07-09T01:25:50;5.28;;;1.75;;
47365;SDS011;33105;47.964;7.982;2022-07-09T01:28:52;4.10;;;1.58;;
47365;SDS011;33105;47.964;7.982;2022-07-09T01:31:53;4.05;;;1.60;;
47365;SDS011;33105;47.964;7.982;2022-07-09T01:34:55;4.47;;;1.58;;
47365;SDS011;33105;47.964;7.982;2022-07-09T01:37:56;4.82;;;1.80;;
47365;SDS011;33105;47.964;7.982;2022-07-09T01:40:58;6.25;;;1.45;;
47365;SDS011;33105;47.964;7.982;2022-07-09T01:43:59;3.00;;;1.30;;
47365;SDS011;33105;47.964;7.982;2022-07-09T01:47:00;4.50;;;1.38;;
47365;SDS011;33105;47.964;7.982;2022-07-09T01:50:02;6.15;;;1.58;;
47365;SDS011;33105;47.964;7.982;2022-07-09T01:53:03;3.38;;;1.42;;
47365;SDS011;33105;47.964;7.982;2022-07-09T01:56:05;5.63;;;1.48;;
47365;SDS011;33105;47.964;7.982;2022-07-09T01:59:08;5.57;;;1.55;;
47365;SDS011;33105;47.964;7.982;2022-07-09T02:02:09;7.90;;;1.77;;
47365;SDS011;33105;47.964;7.982;2022-07-09T02:05:10;5.88;;;1.73;;
47365;SDS011;33105;47.964;7.982;2022-07-09T02:08:11;6.15;;;1.40;;
47365;SDS011;33105;47.964;7.982;2022-07-09T02:11:13;4.30;;;1.30;;
47365;SDS011;33105;47.964;7.982;2022-07-09T02:14:14;7.00;;;1.73;;
47365;SDS011;33105;47.964;7.982;2022-07-09T02:17:15;4.25;;;1.52;;
47365;SDS011;33105;47.964;7.982;2022-07-09T02:20:18;3.63;;;1.58;;
47365;SDS011;33105;47.964;7.982;2022-07-09T02:23:19;5.45;;;1.67;;
47365;SDS011;33105;47.964;7.982;2022-07-09T02:26:21;4.47;;;1.45;;
47365;SDS011;33105;47.964;7.982;2022-07-09T02:29:23;6.15;;;2.00;;
47365;SDS011;33105;47.964;7.982;2022-07-09T02:32:24;4.00;;;1.58;;
47365;SDS011;33105;47.964;7.982;2022-07-09T02:35:25;5.30;;;1.40;;
47365;SDS011;33105;47.964;7.982;2022-07-09T02:38:27;2.97;;;1.30;;
47365;SDS011;33105;47.964;7.982;2022-07-09T02:41:28;3.58;;;1.55;;
47365;SDS011;33105;47.964;7.982;2022-07-09T02:44:29;3.40;;;1.25;;
47365;SDS011;33105;47.964;7.982;2022-07-09T02:47:30;3.83;;;1.27;;
47365;SDS011;33105;47.964;7.982;2022-07-09T02:50:31;5.35;;;1.50;;
47365;SDS011;33105;47.964;7.982;2022-07-09T02:53:33;3.75;;;1.33;;
47365;SDS011;33105;47.964;7.982;2022-07-09T02:56:34;4.07;;;1.35;;
47365;SDS011;33105;47.964;7.982;2022-07-09T02:59:35;3.33;;;1.55;;
47365;SDS011;33105;47.964;7.982;2022-07-09T03:02:36;6.30;;;1.40;;
47365;SDS011;33105;47.964;7.982;2022-07-09T03:05:38;3.72;;;1.23;;
47365;SDS011;33105;47.964;7.982;2022-07-09T03:08:39;5.45;;;1.65;;
47365;SDS011;33105;47.964;7.982;2022-07-09T03:11:41;5.90;;;1.58;;
47365;SDS011;33105;47.964;7.982;2022-07-09T03:14:42;7.10;;;1.30;;
47365;SDS011;33105;47.964;7.982;2022-07-09T03:17:44;4.32;;;1.75;;
47365;SDS011;33105;47.964;7.982;2022-07-09T03:20:47;9.43;;;1.80;;
47365;SDS011;33105;47.964;7.982;2022-07-09T03:23:48;6.43;;;1.38;;
47365;SDS011;33105;47.964;7.982;2022-07-09T03:26:50;7.13;;;1.67;;
47365;SDS011;33105;47.964;7.982;2022-07-09T03:29:51;7.25;;;1.50;;
47365;SDS011;33105;47.964;7.982;2022-07-09T03:32:52;3.85;;;1.48;;
47365;SDS011;33105;47.964;7.982;2022-07-09T03:35:54;5.82;;;1.50;;
47365;SDS011;33105;47.964;7.982;2022-07-09T03:38:59;5.78;;;1.10;;
47365;SDS011;33105;47.964;7.982;2022-07-09T03:42:00;5.78;;;1.75;;
47365;SDS011;33105;47.964;7.982;2022-07-09T03:45:02;4.03;;;1.40;;
47365;SDS011;33105;47.964;7.982;2022-07-09T03:48:03;4.68;;;1.52;;
47365;SDS011;33105;47.964;7.982;2022-07-09T03:51:05;3.28;;;1.45;;
47365;SDS011;33105;47.964;7.982;2022-07-09T03:54:06;5.25;;;1.80;;
47365;SDS011;33105;47.964;7.982;2022-07-09T03:57:07;2.92;;;1.48;;
47365;SDS011;33105;47.964;7.982;2022-07-09T04:00:08;4.93;;;1.65;;
47365;SDS011;33105;47.964;7.982;2022-07-09T04:03:17;6.25;;;1.40;;
47365;SDS011;33105;47.964;7.982;2022-07-09T04:06:19;6.30;;;1.65;;
47365;SDS011;33105;47.964;7.982;2022-07-09T04:09:21;5.22;;;1.42;;
47365;SDS011;33105;47.964;7.982;2022-07-09T04:12:22;3.92;;;1.52;;
47365;SDS011;33105;47.964;7.982;2022-07-09T04:15:23;4.28;;;1.77;;
47365;SDS011;33105;47.964;7.982;2022-07-09T04:18:24;2.08;;;1.33;;
47365;SDS011;33105;47.964;7.982;2022-07-09T04:21:26;3.05;;;1.70;;
47365;SDS011;33105;47.964;7.982;2022-07-09T04:24:28;3.67;;;1.70;;
47365;SDS011;33105;47.964;7.982;2022-07-09T04:27:29;8.02;;;1.77;;
47365;SDS011;33105;47.964;7.982;2022-07-09T04:30:31;5.43;;;1.73;;
47365;SDS011;33105;47.964;7.982;2022-07-09T04:33:33;5.88;;;1.75;;
47365;SDS011;33105;47.964;7.982;2022-07-09T04:36:34;8.18;;;2.03;;
47365;SDS011;33105;47.964;7.982;2022-07-09T04:39:36;4.53;;;1.75;;
47365;SDS011;33105;47.964;7.982;2022-07-09T04:42:37;4.03;;;1.50;;
47365;SDS011;33105;47.964;7.982;2022-07-09T04:45:38;4.40;;;2.25;;
47365;SDS011;33105;47.964;7.982;2022-07-09T04:48:39;7.35;;;2.03;;
47365;SDS011;33105;47.964;7.982;2022-07-09T04:51:41;4.63;;;1.90;;
47365;SDS011;33105;47.964;7.982;2022-07-09T04:54:42;4.20;;;1.75;;
47365;SDS011;33105;47.964;7.982;2022-07-09T04:57:44;4.85;;;1.85;;
47365;SDS011;33105;47.964;7.982;2022-07-09T05:00:45;9.15;;;2.53;;
47365;SDS011;33105;47.964;7.982;2022-07-09T05:03:46;2.92;;;1.70;;
47365;SDS011;33105;47.964;7.982;2022-07-09T05:06:48;5.60;;;2.17;;
47365;SDS011;33105;47.964;7.982;2022-07-09T05:09:49;6.07;;;1.75;;
47365;SDS011;33105;47.964;7.982;2022-07-09T05:12:50;5.72;;;1.95;;
47365;SDS011;33105;47.964;7.982;2022-07-09T05:15:52;5.80;;;2.20;;
47365;SDS011;33105;47.964;7.982;2022-07-09T05:18:53;5.40;;;1.73;;
47365;SDS011;33105;47.964;7.982;2022-07-09T05:21:54;5.53;;;1.75;;
47365;SDS011;33105;47.964;7.982;2022-07-09T05:24:55;5.45;;;1.30;;
47365;SDS011;33105;47.964;7.982;2022-07-09T05:27:56;4.82;;;1.60;;
47365;SDS011;33105;47.964;7.982;2022-07-09T05:30:58;3.20;;;1.55;;
47365;SDS011;33105;47.964;7.982;2022-07-09T05:34:00;3.53;;;1.42;;
47365;SDS011;33105;47.964;7.982;2022-07-09T05:37:02;9.38;;;1.55;;
47365;SDS011;33105;47.964;7.982;2022-07-09T05:40:03;5.28;;;1.55;;
47365;SDS011;33105;47.964;7.982;2022-07-09T05:43:07;7.13;;;1.35;;
47365;SDS011;33105;47.964;7.982;2022-07-09T05:46:08;4.22;;;1.50;;
47365;SDS011;33105;47.964;7.982;2022-07-09T05:49:09;3.20;;;1.27;;
47365;SDS011;33105;47.964;7.982;2022-07-09T05:52:10;7.13;;;1.50;;
47365;SDS011;33105;47.964;7.982;2022-07-09T05:55:12;6.63;;;1.42;;
47365;SDS011;33105;47.964;7.982;2022-07-09T05:58:13;5.60;;;1.52;;
47365;SDS011;33105;47.964;7.982;2022-07-09T06:01:14;5.05;;;1.35;;
47365;SDS011;33105;47.964;7.982;2022-07-09T06:04:16;4.47;;;1.00;;
47365;SDS011;33105;47.964;7.982;2022-07-09T06:07:17;4.47;;;1.20;;
47365;SDS011;33105;47.964;7.982;2022-07-09T06:10:18;6.78;;;1.45;;
47365;SDS011;33105;47.964;7.982;2022-07-09T06:13:19;7.25;;;1.50;;
47365;SDS011;33105;47.964;7.982;2022-07-09T06:16:21;5.78;;;1.48;;
47365;SDS011;33105;47.964;7.982;2022-07-09T06:19:22;4.03;;;1.20;;
47365;SDS011;33105;47.964;7.982;2022-07-09T06:22:24;6.47;;;1.35;;
47365;SDS011;33105;47.964;7.982;2022-07-09T06:25:26;5.28;;;1.30;;
47365;SDS011;33105;47.964;7.982;2022-07-09T06:28:27;4.32;;;1.20;;
47365;SDS011;33105;47.964;7.982;2022-07-09T06:31:28;4.68;;;1.30;;
47365;SDS011;33105;47.964;7.982;2022-07-09T06:34:29;7.55;;;1.50;;
47365;SDS011;33105;47.964;7.982;2022-07-09T06:37:30;15.25;;;2.90;;
47365;SDS011;33105;47.964;7.982;2022-07-09T06:40:32;10.45;;;2.53;;
47365;SDS011;33105;47.964;7.982;2022-07-09T06:43:35;3.92;;;1.30;;
47365;SDS011;33105;47.964;7.982;2022-07-09T06:46:36;3.10;;;1.05;;
47365;SDS011;33105;47.964;7.982;2022-07-09T06:49:39;6.13;;;1.40;;
47365;SDS011;33105;47.964;7.982;2022-07-09T06:52:41;4.35;;;1.05;;
47365;SDS011;33105;47.964;7.982;2022-07-09T06:55:42;5.60;;;1.42;;
47365;SDS011;33105;47.964;7.982;2022-07-09T06:58:44;5.90;;;1.23;;
47365;SDS011;33105;47.964;7.982;2022-07-09T07:01:45;4.65;;;1.17;;
47365;SDS011;33105;47.964;7.982;2022-07-09T07:04:47;4.20;;;1.50;;
47365;SDS011;33105;47.964;7.982;2022-07-09T07:07:49;5.40;;;1.50;;
47365;SDS011;33105;47.964;7.982;2022-07-09T07:10:50;4.10;;;1.20;;
47365;SDS011;33105;47.964;7.982;2022-07-09T07:13:52;3.50;;;1.00;;
47365;SDS011;33105;47.964;7.982;2022-07-09T07:16:53;6.53;;;1.15;;
47365;SDS011;33105;47.964;7.982;2022-07-09T07:19:55;13.95;;;1.33;;
47365;SDS011;33105;47.964;7.982;2022-07-09T07:22:56;4.30;;;1.10;;
47365;SDS011;33105;47.964;7.982;2022-07-09T07:25:59;4.60;;;1.30;;
47365;SDS011;33105;47.964;7.982;2022-07-09T07:29:01;3.63;;;1.10;;
47365;SDS011;33105;47.964;7.982;2022-07-09T07:32:03;5.20;;;1.20;;
47365;SDS011;33105;47.964;7.982;2022-07-09T07:35:05;4.80;;;1.05;;
47365;SDS011;33105;47.964;7.982;2022-07-09T07:38:06;6.53;;;1.40;;
47365;SDS011;33105;47.964;7.982;2022-07-09T07:41:08;4.70;;;1.35;;
47365;SDS011;33105;47.964;7.982;2022-07-09T07:44:09;5.63;;;1.30;;
47365;SDS011;33105;47.964;7.982;2022-07-09T07:47:10;3.50;;;0.90;;
47365;SDS011;33105;47.964;7.982;2022-07-09T07:50:11;4.38;;;1.10;;
47365;SDS011;33105;47.964;7.982;2022-07-09T07:53:13;3.08;;;1.15;;
47365;SDS011;33105;47.964;7.982;2022-07-09T07:56:14;3.95;;;1.20;;
47365;SDS011;33105;47.964;7.982;2022-07-09T07:59:16;5.60;;;1.20;;
47365;SDS011;33105;47.964;7.982;2022-07-09T08:02:18;3.67;;;1.02;;
47365;SDS011;33105;47.964;7.982;2022-07-09T08:05:20;6.72;;;1.25;;
47365;SDS011;33105;47.964;7.982;2022-07-09T08:08:21;7.07;;;1.48;;
47365;SDS011;33105;47.964;7.982;2022-07-09T08:11:22;4.60;;;1.33;;
47365;SDS011;33105;47.964;7.982;2022-07-09T08:14:24;4.88;;;1.20;;
47365;SDS011;33105;47.964;7.982;2022-07-09T08:17:25;4.75;;;1.30;;
47365;SDS011;33105;47.964;7.982;2022-07-09T08:20:26;2.78;;;0.85;;
47365;SDS011;33105;47.964;7.982;2022-07-09T08:23:29;4.05;;;1.00;;
47365;SDS011;33105;47.964;7.982;2022-07-09T08:26:30;6.80;;;1.20;;
47365;SDS011;33105;47.964;7.982;2022-07-09T08:29:31;11.75;;;1.52;;
47365;SDS011;33105;47.964;7.982;2022-07-09T08:32:33;7.95;;;1.17;;
47365;SDS011;33105;47.964;7.982;2022-07-09T08:35:39;6.65;;;1.10;;
47365;SDS011;33105;47.964;7.982;2022-07-09T08:38:41;4.50;;;1.25;;
47365;SDS011;33105;47.964;7.982;2022-07-09T08:41:45;3.65;;;1.02;;
47365;SDS011;33105;47.964;7.982;2022-07-09T08:44:50;4.90;;;1.10;;
47365;SDS011;33105;47.964;7.982;2022-07-09T08:47:51;3.33;;;0.95;;
47365;SDS011;33105;47.964;7.982;2022-07-09T08:50:54;2.60;;;0.80;;
47365;SDS011;33105;47.964;7.982;2022-07-09T08:53:58;3.70;;;1.00;;
47365;SDS011;33105;47.964;7.982;2022-07-09T08:57:01;2.75;;;1.00;;
47365;SDS011;33105;47.964;7.982;2022-07-09T09:00:03;5.30;;;1.10;;
47365;SDS011;33105;47.964;7.982;2022-07-09T09:03:06;2.75;;;0.95;;
47365;SDS011;33105;47.964;7.982;2022-07-09T09:06:09;5.00;;;0.90;;
47365;SDS011;33105;47.964;7.982;2022-07-09T09:09:17;4.15;;;1.00;;
47365;SDS011;33105;47.964;7.982;2022-07-09T09:12:26;2.22;;;0.90;;
47365;SDS011;33105;47.964;7.982;2022-07-09T09:15:30;4.05;;;0.90;;
47365;SDS011;33105;47.964;7.982;2022-07-09T09:18:33;3.40;;;0.90;;
47365;SDS011;33105;47.964;7.982;2022-07-09T09:21:36;4.32;;;0.98;;
47365;SDS011;33105;47.964;7.982;2022-07-09T09:24:38;5.28;;;0.88;;
47365;SDS011;33105;47.964;7.982;2022-07-09T09:27:50;4.88;;;1.00;;
47365;SDS011;33105;47.964;7.982;2022-07-09T09:30:57;4.47;;;1.00;;
47365;SDS011;33105;47.964;7.982;2022-07-09T09:37:09;2.63;;;1.10;;
47365;SDS011;33105;47.964;7.982;2022-07-09T09:40:11;4.88;;;1.25;;
47365;SDS011;33105;47.964;7.982;2022-07-09T09:43:13;5.22;;;1.08;;
47365;SDS011;33105;47.964;7.982;2022-07-09T09:46:19;6.55;;;1.20;;
47365;SDS011;33105;47.964;7.982;2022-07-09T09:49:20;2.92;;;0.93;;
47365;SDS011;33105;47.964;7.982;2022-07-09T09:52:22;4.72;;;1.27;;
47365;SDS011;33105;47.964;7.982;2022-07-09T09:55:25;5.72;;;1.10;;
47365;SDS011;33105;47.964;7.982;2022-07-09T09:58:27;4.22;;;0.98;;
47365;SDS011;33105;47.964;7.982;2022-07-09T10:01:29;8.98;;;0.98;;
47365;SDS011;33105;47.964;7.982;2022-07-09T10:04:31;3.53;;;1.10;;
47365;SDS011;33105;47.964;7.982;2022-07-09T10:07:33;7.68;;;1.20;;
47365;SDS011;33105;47.964;7.982;2022-07-09T10:10:34;4.63;;;1.40;;
47365;SDS011;33105;47.964;7.982;2022-07-09T10:13:54;7.55;;;1.27;;
47365;SDS011;33105;47.964;7.982;2022-07-09T10:17:08;8.15;;;1.55;;
47365;SDS011;33105;47.964;7.982;2022-07-09T10:20:11;5.03;;;1.20;;
47365;SDS011;33105;47.964;7.982;2022-07-09T10:23:25;7.40;;;1.17;;
47365;SDS011;33105;47.964;7.982;2022-07-09T10:33:32;2.08;;;0.95;;
47365;SDS011;33105;47.964;7.982;2022-07-09T10:36:34;6.82;;;1.40;;
47365;SDS011;33105;47.964;7.982;2022-07-09T10:39:36;3.95;;;1.20;;
47365;SDS011;33105;47.964;7.982;2022-07-09T10:42:38;4.47;;;1.25;;
47365;SDS011;33105;47.964;7.982;2022-07-09T10:45:41;5.65;;;1.40;;
47365;SDS011;33105;47.964;7.982;2022-07-09T10:48:46;7.63;;;1.25;;
47365;SDS011;33105;47.964;7.982;2022-07-09T10:51:48;4.40;;;1.30;;
47365;SDS011;33105;47.964;7.982;2022-07-09T10:54:50;4.90;;;1.13;;
47365;SDS011;33105;47.964;7.982;2022-07-09T10:57:53;7.55;;;1.30;;
47365;SDS011;33105;47.964;7.982;2022-07-09T11:00:59;6.88;;;1.25;;
47365;SDS011;33105;47.964;7.982;2022-07-09T11:04:02;4.28;;;1.23;;
47365;SDS011;33105;47.964;7.982;2022-07-09T11:07:04;4.18;;;0.95;;
47365;SDS011;33105;47.964;7.982;2022-07-09T11:10:06;7.80;;;1.50;;
47365;SDS011;33105;47.964;7.982;2022-07-09T11:13:08;7.47;;;1.40;;
47365;SDS011;33105;47.964;7.982;2022-07-09T11:16:10;7.03;;;1.30;;
47365;SDS011;33105;47.964;7.982;2022-07-09T11:19:20;5.80;;;1.27;;
47365;SDS011;33105;47.964;7.982;2022-07-09T11:22:22;6.30;;;1.13;;
47365;SDS011;33105;47.964;7.982;2022-07-09T11:25:24;7.45;;;1.40;;
47365;SDS011;33105;47.964;7.982;2022-07-09T11:28:26;3.80;;;1.45;;
47365;SDS011;33105;47.964;7.982;2022-07-09T11:31:28;3.63;;;1.30;;
47365;SDS011;33105;47.964;7.982;2022-07-09T11:34:30;5.80;;;1.20;;
47365;SDS011;33105;47.964;7.982;2022-07-09T11:37:32;3.15;;;1.40;;
47365;SDS011;33105;47.964;7.982;2022-07-09T11:40:33;6.82;;;1.60;;
47365;SDS011;33105;47.964;7.982;2022-07-09T11:43:35;5.80;;;1.25;;
47365;SDS011;33105;47.964;7.982;2022-07-09T11:46:36;2.28;;;0.90;;
47365;SDS011;33105;47.964;7.982;2022-07-09T11:49:39;3.15;;;1.30;;
47365;SDS011;33105;47.964;7.982;2022-07-09T11:52:42;4.72;;;1.02;;
47365;SDS011;33105;47.964;7.982;2022-07-09T11:55:58;6.45;;;1.38;;
47365;SDS011;33105;47.964;7.982;2022-07-09T11:59:01;5.35;;;1.08;;
47365;SDS011;33105;47.964;7.982;2022-07-09T12:02:02;3.45;;;1.02;;
47365;SDS011;33105;47.964;7.982;2022-07-09T12:05:05;4.85;;;1.17;;
47365;SDS011;33105;47.964;7.982;2022-07-09T12:08:08;6.35;;;1.63;;
47365;SDS011;33105;47.964;7.982;2022-07-09T12:11:09;4.25;;;1.02;;
47365;SDS011;33105;47.964;7.982;2022-07-09T12:14:11;4.70;;;1.13;;
47365;SDS011;33105;47.964;7.982;2022-07-09T12:17:17;4.28;;;1.15;;
47365;SDS011;33105;47.964;7.982;2022-07-09T12:20:21;4.32;;;1.27;;
47365;SDS011;33105;47.964;7.982;2022-07-09T12:23:23;3.78;;;1.25;;
47365;SDS011;33105;47.964;7.982;2022-07-09T12:26:25;4.25;;;1.40;;
47365;SDS011;33105;47.964;7.982;2022-07-09T12:29:27;8.45;;;1.30;;
47365;SDS011;33105;47.964;7.982;2022-07-09T12:32:28;4.47;;;1.38;;
47365;SDS011;33105;47.964;7.982;2022-07-09T12:35:29;5.80;;;1.10;;
47365;SDS011;33105;47.964;7.982;2022-07-09T12:38:31;2.88;;;1.10;;
47365;SDS011;33105;47.964;7.982;2022-07-09T12:41:32;4.07;;;1.00;;
47365;SDS011;33105;47.964;7.982;2022-07-09T12:44:34;6.70;;;1.23;;
47365;SDS011;33105;47.964;7.982;2022-07-09T12:47:35;4.70;;;1.10;;
47365;SDS011;33105;47.964;7.982;2022-07-09T12:50:37;7.38;;;1.30;;
47365;SDS011;33105;47.964;7.982;2022-07-09T12:53:38;3.78;;;1.00;;
47365;SDS011;33105;47.964;7.982;2022-07-09T12:56:40;5.75;;;1.25;;
47365;SDS011;33105;47.964;7.982;2022-07-09T12:59:41;6.10;;;1.27;;
47365;SDS011;33105;47.964;7.982;2022-07-09T13:02:43;3.97;;;1.20;;
47365;SDS011;33105;47.964;7.982;2022-07-09T13:05:44;5.65;;;1.13;;
47365;SDS011;33105;47.964;7.982;2022-07-09T13:08:45;6.40;;;1.10;;
47365;SDS011;33105;47.964;7.982;2022-07-09T13:11:47;3.38;;;0.90;;
47365;SDS011;33105;47.964;7.982;2022-07-09T13:14:50;4.78;;;1.27;;
47365;SDS011;33105;47.964;7.982;2022-07-09T13:17:51;5.25;;;0.90;;
47365;SDS011;33105;47.964;7.982;2022-07-09T13:20:52;7.53;;;1.23;;
47365;SDS011;33105;47.964;7.982;2022-07-09T13:23:53;5.03;;;1.02;;
47365;SDS011;33105;47.964;7.982;2022-07-09T13:26:55;7.90;;;1.50;;
47365;SDS011;33105;47.964;7.982;2022-07-09T13:29:56;3.97;;;1.13;;
47365;SDS011;33105;47.964;7.982;2022-07-09T13:32:58;4.65;;;1.17;;
47365;SDS011;33105;47.964;7.982;2022-07-09T13:36:00;5.63;;;1.08;;
47365;SDS011;33105;47.964;7.982;2022-07-09T13:39:03;3.75;;;1.17;;
47365;SDS011;33105;47.964;7.982;2022-07-09T13:42:04;5.53;;;1.27;;
47365;SDS011;33105;47.964;7.982;2022-07-09T13:45:05;3.05;;;1.10;;
47365;SDS011;33105;47.964;7.982;2022-07-09T13:48:07;4.38;;;1.10;;
47365;SDS011;33105;47.964;7.982;2022-07-09T13:51:09;7.05;;;1.00;;
47365;SDS011;33105;47.964;7.982;2022-07-09T13:54:10;6.95;;;1.40;;
47365;SDS011;33105;47.964;7.982;2022-07-09T13:57:12;4.55;;;1.00;;
47365;SDS011;33105;47.964;7.982;2022-07-09T14:00:14;2.88;;;1.05;;
47365;SDS011;33105;47.964;7.982;2022-07-09T14:03:15;2.17;;;1.17;;
47365;SDS011;33105;47.964;7.982;2022-07-09T14:06:17;4.05;;;1.30;;
47365;SDS011;33105;47.964;7.982;2022-07-09T14:09:19;3.05;;;1.05;;
47365;SDS011;33105;47.964;7.982;2022-07-09T14:12:23;2.28;;;0.90;;
47365;SDS011;33105;47.964;7.982;2022-07-09T14:15:26;12.80;;;1.40;;
47365;SDS011;33105;47.964;7.982;2022-07-09T14:18:28;7.85;;;1.10;;
47365;SDS011;33105;47.964;7.982;2022-07-09T14:21:30;7.75;;;1.00;;
47365;SDS011;33105;47.964;7.982;2022-07-09T14:24:31;5.88;;;1.40;;
47365;SDS011;33105;47.964;7.982;2022-07-09T14:27:33;4.97;;;1.33;;
47365;SDS011;33105;47.964;7.982;2022-07-09T14:30:34;6.65;;;1.00;;
47365;SDS011;33105;47.964;7.982;2022-07-09T14:33:36;2.72;;;1.02;;
47365;SDS011;33105;47.964;7.982;2022-07-09T14:36:37;4.15;;;1.00;;
47365;SDS011;33105;47.964;7.982;2022-07-09T14:39:38;5.40;;;1.38;;
47365;SDS011;33105;47.964;7.982;2022-07-09T14:42:40;4.63;;;1.10;;
47365;SDS011;33105;47.964;7.982;2022-07-09T14:45:41;2.63;;;0.98;;
47365;SDS011;33105;47.964;7.982;2022-07-09T14:48:42;2.53;;;1.20;;
47365;SDS011;33105;47.964;7.982;2022-07-09T14:51:43;4.97;;;1.50;;
47365;SDS011;33105;47.964;7.982;2022-07-09T14:54:44;4.78;;;1.40;;
47365;SDS011;33105;47.964;7.982;2022-07-09T14:57:46;2.05;;;0.90;;
47365;SDS011;33105;47.964;7.982;2022-07-09T15:00:47;3.40;;;1.00;;
47365;SDS011;33105;47.964;7.982;2022-07-09T15:03:48;4.47;;;1.50;;
47365;SDS011;33105;47.964;7.982;2022-07-09T15:06:49;2.72;;;1.05;;
47365;SDS011;33105;47.964;7.982;2022-07-09T15:09:51;3.78;;;1.30;;
47365;SDS011;33105;47.964;7.982;2022-07-09T15:12:54;4.55;;;1.33;;
47365;SDS011;33105;47.964;7.982;2022-07-09T15:15:55;7.55;;;1.30;;
47365;SDS011;33105;47.964;7.982;2022-07-09T15:18:56;4.43;;;1.30;;
47365;SDS011;33105;47.964;7.982;2022-07-09T15:21:57;1.98;;;1.10;;
47365;SDS011;33105;47.964;7.982;2022-07-09T15:24:59;3.00;;;0.98;;
47365;SDS011;33105;47.964;7.982;2022-07-09T15:28:05;10.25;;;1.10;;
47365;SDS011;33105;47.964;7.982;2022-07-09T15:31:07;3.40;;;1.00;;
47365;SDS011;33105;47.964;7.982;2022-07-09T15:34:09;4.32;;;1.10;;
47365;SDS011;33105;47.964;7.982;2022-07-09T15:37:11;4.05;;;1.05;;
47365;SDS011;33105;47.964;7.982;2022-07-09T15:40:12;3.47;;;1.00;;
47365;SDS011;33105;47.964;7.982;2022-07-09T15:43:15;3.90;;;1.15;;
47365;SDS011;33105;47.964;7.982;2022-07-09T15:46:16;4.30;;;1.10;;
47365;SDS011;33105;47.964;7.982;2022-07-09T15:49:18;5.40;;;1.00;;
47365;SDS011;33105;47.964;7.982;2022-07-09T15:52:19;5.10;;;1.00;;
47365;SDS011;33105;47.964;7.982;2022-07-09T15:55:21;4.53;;;1.05;;
47365;SDS011;33105;47.964;7.982;2022-07-09T15:58:22;4.80;;;1.08;;
47365;SDS011;33105;47.964;7.982;2022-07-09T16:01:24;4.88;;;1.10;;
47365;SDS011;33105;47.964;7.982;2022-07-09T16:04:27;4.63;;;1.10;;
47365;SDS011;33105;47.964;7.982;2022-07-09T16:07:29;3.35;;;1.13;;
47365;SDS011;33105;47.964;7.982;2022-07-09T16:10:30;4.20;;;0.95;;
47365;SDS011;33105;47.964;7.982;2022-07-09T16:13:31;2.42;;;0.90;;
47365;SDS011;33105;47.964;7.982;2022-07-09T16:16:33;3.65;;;1.00;;
47365;SDS011;33105;47.964;7.982;2022-07-09T16:19:34;2.60;;;0.85;;
47365;SDS011;33105;47.964;7.982;2022-07-09T16:22:36;2.58;;;0.80;;
47365;SDS011;33105;47.964;7.982;2022-07-09T16:25:37;5.80;;;1.00;;
47365;SDS011;33105;47.964;7.982;2022-07-09T16:28:38;3.20;;;1.05;;
47365;SDS011;33105;47.964;7.982;2022-07-09T16:31:39;3.58;;;1.20;;
47365;SDS011;33105;47.964;7.982;2022-07-09T16:34:41;6.82;;;1.05;;
47365;SDS011;33105;47.964;7.982;2022-07-09T16:37:42;7.60;;;0.90;;
47365;SDS011;33105;47.964;7.982;2022-07-09T16:40:44;5.20;;;1.02;;
47365;SDS011;33105;47.964;7.982;2022-07-09T16:43:45;5.13;;;1.10;;
47365;SDS011;33105;47.964;7.982;2022-07-09T16:46:46;3.05;;;0.98;;
47365;SDS011;33105;47.964;7.982;2022-07-09T16:49:48;4.60;;;0.93;;
47365;SDS011;33105;47.964;7.982;2022-07-09T16:52:49;3.95;;;1.08;;
47365;SDS011;33105;47.964;7.982;2022-07-09T16:55:51;1.52;;;0.75;;
47365;SDS011;33105;47.964;7.982;2022-07-09T16:58:52;3.42;;;1.10;;
47365;SDS011;33105;47.964;7.982;2022-07-09T17:01:53;2.83;;;0.82;;
47365;SDS011;33105;47.964;7.982;2022-07-09T17:04:55;2.10;;;1.00;;
47365;SDS011;33105;47.964;7.982;2022-07-09T17:07:56;3.83;;;0.80;;
47365;SDS011;33105;47.964;7.982;2022-07-09T17:10:57;3.33;;;0.90;;
47365;SDS011;33105;47.964;7.982;2022-07-09T17:13:58;1.27;;;0.63;;
47365;SDS011;33105;47.964;7.982;2022-07-09T17:17:00;3.55;;;0.65;;
47365;SDS011;33105;47.964;7.982;2022-07-09T17:20:02;2.75;;;0.95;;
47365;SDS011;33105;47.964;7.982;2022-07-09T17:23:06;3.80;;;1.02;;
47365;SDS011;33105;47.964;7.982;2022-07-09T17:26:07;3.42;;;1.25;;
47365;SDS011;33105;47.964;7.982;2022-07-09T17:29:08;3.08;;;0.90;;
47365;SDS011;33105;47.964;7.982;2022-07-09T17:32:09;1.95;;;1.00;;
47365;SDS011;33105;47.964;7.982;2022-07-09T17:35:11;8.77;;;0.90;;
47365;SDS011;33105;47.964;7.982;2022-07-09T17:38:14;6.80;;;1.00;;
47365;SDS011;33105;47.964;7.982;2022-07-09T17:41:15;3.95;;;0.82;;
47365;SDS011;33105;47.964;7.982;2022-07-09T17:44:17;2.65;;;0.82;;
47365;SDS011;33105;47.964;7.982;2022-07-09T17:47:18;3.75;;;0.90;;
47365;SDS011;33105;47.964;7.982;2022-07-09T17:50:20;3.70;;;1.00;;
47365;SDS011;33105;47.964;7.982;2022-07-09T17:53:22;1.52;;;0.73;;
47365;SDS011;33105;47.964;7.982;2022-07-09T17:56:23;1.65;;;0.77;;
47365;SDS011;33105;47.964;7.982;2022-07-09T17:59:25;1.25;;;0.70;;
47365;SDS011;33105;47.964;7.982;2022-07-09T18:02:27;2.10;;;0.80;;
47365;SDS011;33105;47.964;7.982;2022-07-09T18:05:29;5.05;;;1.42;;
47365;SDS011;33105;47.964;7.982;2022-07-09T18:08:30;5.63;;;1.10;;
47365;SDS011;33105;47.964;7.982;2022-07-09T18:11:32;4.57;;;1.20;;
47365;SDS011;33105;47.964;7.982;2022-07-09T18:14:34;1.70;;;0.90;;
47365;SDS011;33105;47.964;7.982;2022-07-09T18:17:36;1.95;;;0.93;;
47365;SDS011;33105;47.964;7.982;2022-07-09T18:20:37;3.85;;;0.85;;
47365;SDS011;33105;47.964;7.982;2022-07-09T18:23:40;3.75;;;0.98;;
47365;SDS011;33105;47.964;7.982;2022-07-09T18:26:42;2.28;;;0.90;;